sensor_id;sensor_type;location;lat;lon;timestamp;P1;durP1;ratioP1;P2;durP2;ratioP2
77705;SDS011;66874;45.274;5.880;2023-02-11T00:01:49;70.77;;;27.23;;
77705;SDS011;66874;45.274;5.880;2023-02-11T00:04:15;68.43;;;26.13;;
77705;SDS011;66874;45.274;5.880;2023-02-11T00:06:40;64.50;;;25.30;;
77705;SDS011;66874;45.274;5.880;2023-02-11T00:09:06;65.90;;;24.03;;
77705;SDS011;66874;45.274;5.880;2023-02-11T00:11:32;54.03;;;21.43;;
77705;SDS011;66874;45.274;5.880;2023-02-11T00:13:59;57.57;;;23.77;;
77705;SDS011;66874;45.274;5.880;2023-02-11T00:16:26;60.67;;;23.93;;
77705;SDS011;66874;45.274;5.880;2023-02-11T00:18:53;62.20;;;25.35;;
77705;SDS011;66874;45.274;5.880;2023-02-11T00:21:20;57.37;;;24.10;;
77705;SDS011;66874;45.274;5.880;2023-02-11T00:23:47;54.00;;;22.70;;
77705;SDS011;66874;45.274;5.880;2023-02-11T00:26:14;53.77;;;20.80;;
77705;SDS011;66874;45.274;5.880;2023-02-11T00:28:41;52.43;;;22.07;;
77705;SDS011;66874;45.274;5.880;2023-02-11T03:09:07;33.20;;;13.33;;
77705;SDS011;66874;45.274;5.880;2023-02-11T03:11:37;33.23;;;14.13;;
77705;SDS011;66874;45.274;5.880;2023-02-11T03:14:05;40.30;;;14.25;;
77705;SDS011;66874;45.274;5.880;2023-02-11T03:16:34;39.87;;;14.60;;
77705;SDS011;66874;45.274;5.880;2023-02-11T03:19:09;36.43;;;14.87;;
77705;SDS011;66874;45.274;5.880;2023-02-11T03:21:38;36.03;;;14.97;;
77705;SDS011;66874;45.274;5.880;2023-02-11T03:24:07;33.27;;;14.37;;
77705;SDS011;66874;45.274;5.880;2023-02-11T06:32:20;31.67;;;12.47;;
77705;SDS011;66874;45.274;5.880;2023-02-11T06:34:45;31.17;;;12.50;;
77705;SDS011;66874;45.274;5.880;2023-02-11T06:37:11;30.23;;;12.77;;
77705;SDS011;66874;45.274;5.880;2023-02-11T06:39:37;30.17;;;13.57;;
77705;SDS011;66874;45.274;5.880;2023-02-11T06:42:02;31.00;;;13.43;;
77705;SDS011;66874;45.274;5.880;2023-02-11T06:44:28;35.40;;;15.53;;
77705;SDS011;66874;45.274;5.880;2023-02-11T06:46:53;31.13;;;13.40;;
77705;SDS011;66874;45.274;5.880;2023-02-11T06:49:18;36.17;;;14.40;;
77705;SDS011;66874;45.274;5.880;2023-02-11T06:51:44;40.20;;;16.00;;
77705;SDS011;66874;45.274;5.880;2023-02-11T06:54:09;38.53;;;15.57;;
77705;SDS011;66874;45.274;5.880;2023-02-11T06:56:37;34.77;;;14.80;;
77705;SDS011;66874;45.274;5.880;2023-02-11T06:59:04;57.17;;;21.60;;
77705;SDS011;66874;45.274;5.880;2023-02-11T07:01:29;38.33;;;16.90;;
77705;SDS011;66874;45.274;5.880;2023-02-11T07:03:55;42.53;;;14.80;;
77705;SDS011;66874;45.274;5.880;2023-02-11T07:06:21;34.60;;;16.00;;
77705;SDS011;66874;45.274;5.880;2023-02-11T07:08:49;31.87;;;13.93;;
77705;SDS011;66874;45.274;5.880;2023-02-11T07:11:16;36.40;;;14.63;;
77705;SDS011;66874;45.274;5.880;2023-02-11T07:13:44;41.00;;;17.40;;
77705;SDS011;66874;45.274;5.880;2023-02-11T07:16:10;44.03;;;16.27;;
77705;SDS011;66874;45.274;5.880;2023-02-11T07:18:37;49.13;;;17.77;;
77705;SDS011;66874;45.274;5.880;2023-02-11T07:21:07;34.50;;;14.93;;
77705;SDS011;66874;45.274;5.880;2023-02-11T07:23:34;35.27;;;15.03;;
77705;SDS011;66874;45.274;5.880;2023-02-11T07:26:01;42.73;;;19.23;;
77705;SDS011;66874;45.274;5.880;2023-02-11T07:30:53;38.97;;;14.97;;
77705;SDS011;66874;45.274;5.880;2023-02-11T07:33:19;36.67;;;16.40;;
77705;SDS011;66874;45.274;5.880;2023-02-11T07:35:44;39.07;;;15.20;;
77705;SDS011;66874;45.274;5.880;2023-02-11T07:38:09;41.53;;;18.27;;
77705;SDS011;66874;45.274;5.880;2023-02-11T07:40:35;37.00;;;16.13;;
77705;SDS011;66874;45.274;5.880;2023-02-11T07:43:00;38.13;;;16.93;;
77705;SDS011;66874;45.274;5.880;2023-02-11T07:45:26;37.07;;;16.10;;
77705;SDS011;66874;45.274;5.880;2023-02-11T07:47:52;40.50;;;15.90;;
77705;SDS011;66874;45.274;5.880;2023-02-11T07:50:18;38.50;;;15.77;;
77705;SDS011;66874;45.274;5.880;2023-02-11T07:52:43;40.00;;;17.60;;
77705;SDS011;66874;45.274;5.880;2023-02-11T07:55:08;40.90;;;17.37;;
77705;SDS011;66874;45.274;5.880;2023-02-11T07:57:34;40.90;;;19.50;;
77705;SDS011;66874;45.274;5.880;2023-02-11T08:00:00;44.00;;;19.47;;
77705;SDS011;66874;45.274;5.880;2023-02-11T08:02:25;41.77;;;18.67;;
77705;SDS011;66874;45.274;5.880;2023-02-11T08:04:51;48.77;;;19.23;;
77705;SDS011;66874;45.274;5.880;2023-02-11T08:07:17;42.27;;;17.23;;
77705;SDS011;66874;45.274;5.880;2023-02-11T08:09:43;48.10;;;20.27;;
77705;SDS011;66874;45.274;5.880;2023-02-11T08:12:09;44.63;;;19.43;;
77705;SDS011;66874;45.274;5.880;2023-02-11T08:14:34;45.90;;;19.27;;
77705;SDS011;66874;45.274;5.880;2023-02-11T08:17:00;40.73;;;16.37;;
77705;SDS011;66874;45.274;5.880;2023-02-11T08:19:25;45.00;;;19.30;;
77705;SDS011;66874;45.274;5.880;2023-02-11T08:21:53;40.07;;;17.47;;
77705;SDS011;66874;45.274;5.880;2023-02-11T08:24:20;40.97;;;17.37;;
77705;SDS011;66874;45.274;5.880;2023-02-11T08:26:46;42.70;;;18.07;;
77705;SDS011;66874;45.274;5.880;2023-02-11T08:29:12;36.67;;;18.23;;
77705;SDS011;66874;45.274;5.880;2023-02-11T08:31:39;36.80;;;16.95;;
77705;SDS011;66874;45.274;5.880;2023-02-11T08:34:06;37.03;;;17.13;;
77705;SDS011;66874;45.274;5.880;2023-02-11T08:36:33;36.53;;;15.57;;
77705;SDS011;66874;45.274;5.880;2023-02-11T08:39:00;37.97;;;15.97;;
77705;SDS011;66874;45.274;5.880;2023-02-11T08:41:29;43.53;;;19.43;;
77705;SDS011;66874;45.274;5.880;2023-02-11T08:43:56;38.25;;;18.60;;
77705;SDS011;66874;45.274;5.880;2023-02-11T08:46:21;37.67;;;17.13;;
77705;SDS011;66874;45.274;5.880;2023-02-11T08:48:47;37.20;;;17.83;;
77705;SDS011;66874;45.274;5.880;2023-02-11T08:51:23;32.83;;;16.23;;
77705;SDS011;66874;45.274;5.880;2023-02-11T08:53:51;40.37;;;16.47;;
77705;SDS011;66874;45.274;5.880;2023-02-11T08:56:18;37.23;;;16.67;;
77705;SDS011;66874;45.274;5.880;2023-02-11T08:58:45;39.92;;;17.60;;
77705;SDS011;66874;45.274;5.880;2023-02-11T09:01:11;34.27;;;15.33;;
77705;SDS011;66874;45.274;5.880;2023-02-11T09:03:45;35.37;;;16.73;;
77705;SDS011;66874;45.274;5.880;2023-02-11T09:06:11;37.13;;;16.50;;
77705;SDS011;66874;45.274;5.880;2023-02-11T09:08:39;38.13;;;17.15;;
77705;SDS011;66874;45.274;5.880;2023-02-11T09:11:07;40.17;;;16.30;;
77705;SDS011;66874;45.274;5.880;2023-02-11T09:13:33;37.30;;;15.52;;
77705;SDS011;66874;45.274;5.880;2023-02-11T09:16:00;37.97;;;16.27;;
77705;SDS011;66874;45.274;5.880;2023-02-11T09:18:27;29.53;;;15.10;;
77705;SDS011;66874;45.274;5.880;2023-02-11T09:20:53;35.17;;;14.53;;
77705;SDS011;66874;45.274;5.880;2023-02-11T09:23:26;34.57;;;13.83;;
77705;SDS011;66874;45.274;5.880;2023-02-11T09:25:51;27.43;;;12.77;;
77705;SDS011;66874;45.274;5.880;2023-02-11T09:28:16;31.67;;;15.37;;
77705;SDS011;66874;45.274;5.880;2023-02-11T09:30:42;29.40;;;12.93;;
77705;SDS011;66874;45.274;5.880;2023-02-11T09:33:07;31.00;;;13.73;;
77705;SDS011;66874;45.274;5.880;2023-02-11T09:35:33;26.50;;;13.57;;
77705;SDS011;66874;45.274;5.880;2023-02-11T09:37:59;32.00;;;13.43;;
77705;SDS011;66874;45.274;5.880;2023-02-11T09:40:24;29.53;;;13.63;;
77705;SDS011;66874;45.274;5.880;2023-02-11T09:42:55;30.77;;;13.97;;
77705;SDS011;66874;45.274;5.880;2023-02-11T09:45:26;27.63;;;14.33;;
77705;SDS011;66874;45.274;5.880;2023-02-11T09:50:34;34.07;;;14.13;;
77705;SDS011;66874;45.274;5.880;2023-02-11T09:53:13;26.95;;;12.88;;
77705;SDS011;66874;45.274;5.880;2023-02-11T09:55:51;30.30;;;14.32;;
77705;SDS011;66874;45.274;5.880;2023-02-11T09:58:25;32.22;;;15.10;;
77705;SDS011;66874;45.274;5.880;2023-02-11T10:03:36;30.50;;;14.38;;
77705;SDS011;66874;45.274;5.880;2023-02-11T10:06:28;29.67;;;13.88;;
77705;SDS011;66874;45.274;5.880;2023-02-11T10:09:10;30.17;;;13.40;;
77705;SDS011;66874;45.274;5.880;2023-02-11T10:16:48;26.27;;;14.43;;
77705;SDS011;66874;45.274;5.880;2023-02-11T10:22:14;25.92;;;13.25;;
77705;SDS011;66874;45.274;5.880;2023-02-11T10:24:55;21.13;;;11.93;;
77705;SDS011;66874;45.274;5.880;2023-02-11T10:27:28;29.70;;;12.75;;
77705;SDS011;66874;45.274;5.880;2023-02-11T10:30:18;27.70;;;12.88;;
77705;SDS011;66874;45.274;5.880;2023-02-11T10:35:23;27.40;;;12.65;;
77705;SDS011;66874;45.274;5.880;2023-02-11T10:40:20;27.15;;;13.50;;
77705;SDS011;66874;45.274;5.880;2023-02-11T10:42:49;25.65;;;14.07;;
77705;SDS011;66874;45.274;5.880;2023-02-11T10:45:21;24.55;;;12.73;;
77705;SDS011;66874;45.274;5.880;2023-02-11T10:47:54;25.15;;;12.88;;
77705;SDS011;66874;45.274;5.880;2023-02-11T10:52:45;24.15;;;13.73;;
77705;SDS011;66874;45.274;5.880;2023-02-11T10:57:48;23.95;;;13.20;;
77705;SDS011;66874;45.274;5.880;2023-02-11T11:02:42;30.15;;;13.88;;
77705;SDS011;66874;45.274;5.880;2023-02-11T11:05:15;26.50;;;13.20;;
77705;SDS011;66874;45.274;5.880;2023-02-11T11:07:53;22.83;;;11.95;;
77705;SDS011;66874;45.274;5.880;2023-02-11T11:10:25;23.85;;;12.35;;
77705;SDS011;66874;45.274;5.880;2023-02-11T11:12:52;20.08;;;10.50;;
77705;SDS011;66874;45.274;5.880;2023-02-11T11:15:25;18.55;;;10.52;;
77705;SDS011;66874;45.274;5.880;2023-02-11T11:18:08;21.17;;;11.80;;
77705;SDS011;66874;45.274;5.880;2023-02-11T11:20:33;21.88;;;12.27;;
77705;SDS011;66874;45.274;5.880;2023-02-11T11:23:10;23.33;;;13.32;;
77705;SDS011;66874;45.274;5.880;2023-02-11T11:25:44;26.23;;;12.75;;
77705;SDS011;66874;45.274;5.880;2023-02-11T11:28:24;33.80;;;14.85;;
77705;SDS011;66874;45.274;5.880;2023-02-11T11:30:51;24.35;;;13.65;;
77705;SDS011;66874;45.274;5.880;2023-02-11T11:33:27;25.80;;;14.50;;
77705;SDS011;66874;45.274;5.880;2023-02-11T11:38:23;22.92;;;13.60;;
77705;SDS011;66874;45.274;5.880;2023-02-11T11:41:11;27.63;;;14.32;;
77705;SDS011;66874;45.274;5.880;2023-02-11T11:46:30;24.83;;;15.50;;
77705;SDS011;66874;45.274;5.880;2023-02-11T11:49:43;28.25;;;15.25;;
77705;SDS011;66874;45.274;5.880;2023-02-11T11:54:58;24.58;;;14.43;;
77705;SDS011;66874;45.274;5.880;2023-02-11T11:57:34;22.50;;;13.98;;
77705;SDS011;66874;45.274;5.880;2023-02-11T12:00:02;25.25;;;14.27;;
77705;SDS011;66874;45.274;5.880;2023-02-11T12:02:43;24.35;;;14.02;;
77705;SDS011;66874;45.274;5.880;2023-02-11T12:05:24;21.20;;;13.05;;
77705;SDS011;66874;45.274;5.880;2023-02-11T12:08:02;23.33;;;12.25;;
77705;SDS011;66874;45.274;5.880;2023-02-11T12:13:17;21.48;;;12.88;;
77705;SDS011;66874;45.274;5.880;2023-02-11T12:16:04;23.90;;;12.18;;
77705;SDS011;66874;45.274;5.880;2023-02-11T12:21:42;23.48;;;11.13;;
77705;SDS011;66874;45.274;5.880;2023-02-11T12:27:17;19.85;;;11.80;;
77705;SDS011;66874;45.274;5.880;2023-02-11T12:35:37;21.00;;;12.43;;
77705;SDS011;66874;45.274;5.880;2023-02-11T12:38:52;21.67;;;12.48;;
77705;SDS011;66874;45.274;5.880;2023-02-11T12:44:26;19.98;;;12.63;;
77705;SDS011;66874;45.274;5.880;2023-02-11T12:50:06;19.27;;;11.23;;
77705;SDS011;66874;45.274;5.880;2023-02-11T12:52:42;25.17;;;11.30;;
77705;SDS011;66874;45.274;5.880;2023-02-11T12:55:22;20.42;;;10.77;;
77705;SDS011;66874;45.274;5.880;2023-02-11T12:57:51;19.13;;;11.90;;
77705;SDS011;66874;45.274;5.880;2023-02-11T13:03:21;17.98;;;11.90;;
77705;SDS011;66874;45.274;5.880;2023-02-11T13:05:56;20.25;;;12.45;;
77705;SDS011;66874;45.274;5.880;2023-02-11T13:08:31;17.42;;;12.32;;
77705;SDS011;66874;45.274;5.880;2023-02-11T13:11:02;17.27;;;12.77;;
77705;SDS011;66874;45.274;5.880;2023-02-11T13:13:45;20.63;;;13.30;;
77705;SDS011;66874;45.274;5.880;2023-02-11T13:24:57;18.33;;;13.75;;
77705;SDS011;66874;45.274;5.880;2023-02-11T13:38:04;18.02;;;12.95;;
77705;SDS011;66874;45.274;5.880;2023-02-11T13:40:41;17.88;;;12.82;;
77705;SDS011;66874;45.274;5.880;2023-02-11T13:43:40;19.90;;;13.30;;
77705;SDS011;66874;45.274;5.880;2023-02-11T13:48:30;22.10;;;14.30;;
77705;SDS011;66874;45.274;5.880;2023-02-11T13:51:04;20.48;;;13.93;;
77705;SDS011;66874;45.274;5.880;2023-02-11T13:58:58;22.27;;;14.48;;
77705;SDS011;66874;45.274;5.880;2023-02-11T14:01:37;21.90;;;13.68;;
77705;SDS011;66874;45.274;5.880;2023-02-11T14:07:30;21.67;;;12.93;;
77705;SDS011;66874;45.274;5.880;2023-02-11T14:15:47;22.40;;;14.75;;
77705;SDS011;66874;45.274;5.880;2023-02-11T14:23:50;23.38;;;13.80;;
77705;SDS011;66874;45.274;5.880;2023-02-11T14:28:43;20.35;;;12.45;;
77705;SDS011;66874;45.274;5.880;2023-02-11T14:31:27;23.00;;;13.20;;
77705;SDS011;66874;45.274;5.880;2023-02-11T14:42:23;26.58;;;14.68;;
77705;SDS011;66874;45.274;5.880;2023-02-11T14:44:52;21.08;;;13.07;;
77705;SDS011;66874;45.274;5.880;2023-02-11T14:47:42;24.40;;;14.73;;
77705;SDS011;66874;45.274;5.880;2023-02-11T14:50:23;22.33;;;14.38;;
77705;SDS011;66874;45.274;5.880;2023-02-11T14:52:51;27.20;;;15.93;;
77705;SDS011;66874;45.274;5.880;2023-02-11T14:55:29;26.77;;;17.40;;
77705;SDS011;66874;45.274;5.880;2023-02-11T14:58:07;25.10;;;15.10;;
77705;SDS011;66874;45.274;5.880;2023-02-11T15:00:46;27.15;;;15.27;;
77705;SDS011;66874;45.274;5.880;2023-02-11T15:05:54;26.50;;;15.35;;
77705;SDS011;66874;45.274;5.880;2023-02-11T15:08:22;26.85;;;16.05;;
77705;SDS011;66874;45.274;5.880;2023-02-11T15:10:48;31.88;;;17.63;;
77705;SDS011;66874;45.274;5.880;2023-02-11T15:13:18;28.83;;;16.90;;
77705;SDS011;66874;45.274;5.880;2023-02-11T15:15:45;28.95;;;16.88;;
77705;SDS011;66874;45.274;5.880;2023-02-11T15:18:21;24.40;;;15.00;;
77705;SDS011;66874;45.274;5.880;2023-02-11T15:20:53;25.77;;;15.77;;
77705;SDS011;66874;45.274;5.880;2023-02-11T15:23:22;25.50;;;16.15;;
77705;SDS011;66874;45.274;5.880;2023-02-11T15:25:51;24.15;;;15.52;;
77705;SDS011;66874;45.274;5.880;2023-02-11T15:28:26;23.77;;;14.90;;
77705;SDS011;66874;45.274;5.880;2023-02-11T15:33:36;25.90;;;15.45;;
77705;SDS011;66874;45.274;5.880;2023-02-11T15:36:01;26.55;;;15.65;;
77705;SDS011;66874;45.274;5.880;2023-02-11T15:38:27;25.92;;;16.30;;
77705;SDS011;66874;45.274;5.880;2023-02-11T15:41:03;30.15;;;16.80;;
77705;SDS011;66874;45.274;5.880;2023-02-11T15:43:49;29.92;;;16.48;;
77705;SDS011;66874;45.274;5.880;2023-02-11T15:46:21;25.52;;;16.08;;
77705;SDS011;66874;45.274;5.880;2023-02-11T15:48:48;31.20;;;16.77;;
77705;SDS011;66874;45.274;5.880;2023-02-11T15:51:33;26.85;;;15.65;;
77705;SDS011;66874;45.274;5.880;2023-02-11T15:56:40;26.95;;;15.93;;
77705;SDS011;66874;45.274;5.880;2023-02-11T16:01:55;29.38;;;15.75;;
77705;SDS011;66874;45.274;5.880;2023-02-11T16:04:24;25.63;;;16.27;;
77705;SDS011;66874;45.274;5.880;2023-02-11T16:06:51;28.00;;;16.00;;
77705;SDS011;66874;45.274;5.880;2023-02-11T16:16:47;35.78;;;23.00;;
77705;SDS011;66874;45.274;5.880;2023-02-11T16:19:19;37.75;;;19.83;;
77705;SDS011;66874;45.274;5.880;2023-02-11T16:26:48;39.38;;;21.20;;
77705;SDS011;66874;45.274;5.880;2023-02-11T16:29:16;33.08;;;16.70;;
77705;SDS011;66874;45.274;5.880;2023-02-11T16:31:48;28.48;;;15.52;;
77705;SDS011;66874;45.274;5.880;2023-02-11T16:36:47;58.50;;;31.45;;
77705;SDS011;66874;45.274;5.880;2023-02-11T16:39:14;49.85;;;23.77;;
77705;SDS011;66874;45.274;5.880;2023-02-11T16:41:40;47.28;;;22.15;;
77705;SDS011;66874;45.274;5.880;2023-02-11T16:44:06;44.20;;;25.98;;
77705;SDS011;66874;45.274;5.880;2023-02-11T16:46:31;66.28;;;37.17;;
77705;SDS011;66874;45.274;5.880;2023-02-11T16:48:57;46.13;;;28.73;;
77705;SDS011;66874;45.274;5.880;2023-02-11T16:51:35;93.43;;;47.65;;
77705;SDS011;66874;45.274;5.880;2023-02-11T16:54:03;95.05;;;48.55;;
77705;SDS011;66874;45.274;5.880;2023-02-11T16:56:29;97.22;;;49.70;;
77705;SDS011;66874;45.274;5.880;2023-02-11T16:58:54;87.80;;;43.70;;
77705;SDS011;66874;45.274;5.880;2023-02-11T17:01:20;64.35;;;31.90;;
77705;SDS011;66874;45.274;5.880;2023-02-11T17:03:45;48.45;;;26.70;;
77705;SDS011;66874;45.274;5.880;2023-02-11T17:06:11;54.97;;;27.90;;
77705;SDS011;66874;45.274;5.880;2023-02-11T17:08:37;70.35;;;33.38;;
77705;SDS011;66874;45.274;5.880;2023-02-11T17:11:03;57.13;;;30.80;;
77705;SDS011;66874;45.274;5.880;2023-02-11T17:13:29;59.78;;;29.05;;
77705;SDS011;66874;45.274;5.880;2023-02-11T17:15:55;56.60;;;28.17;;
77705;SDS011;66874;45.274;5.880;2023-02-11T17:18:20;47.25;;;24.85;;
77705;SDS011;66874;45.274;5.880;2023-02-11T17:20:45;51.17;;;26.38;;
77705;SDS011;66874;45.274;5.880;2023-02-11T17:23:11;49.13;;;26.23;;
77705;SDS011;66874;45.274;5.880;2023-02-11T17:25:36;58.30;;;27.42;;
77705;SDS011;66874;45.274;5.880;2023-02-11T17:28:03;56.55;;;26.90;;
77705;SDS011;66874;45.274;5.880;2023-02-11T17:30:29;59.40;;;22.88;;
77705;SDS011;66874;45.274;5.880;2023-02-11T17:32:55;55.63;;;24.42;;
77705;SDS011;66874;45.274;5.880;2023-02-11T17:35:20;47.35;;;24.25;;
77705;SDS011;66874;45.274;5.880;2023-02-11T17:37:46;49.85;;;24.67;;
77705;SDS011;66874;45.274;5.880;2023-02-11T17:40:11;47.08;;;24.30;;
77705;SDS011;66874;45.274;5.880;2023-02-11T17:42:37;48.83;;;24.73;;
77705;SDS011;66874;45.274;5.880;2023-02-11T17:45:03;48.40;;;25.15;;
77705;SDS011;66874;45.274;5.880;2023-02-11T17:47:29;55.40;;;30.17;;
77705;SDS011;66874;45.274;5.880;2023-02-11T17:49:54;49.63;;;26.45;;
77705;SDS011;66874;45.274;5.880;2023-02-11T17:52:20;54.55;;;28.50;;
77705;SDS011;66874;45.274;5.880;2023-02-11T17:54:45;68.32;;;34.38;;
77705;SDS011;66874;45.274;5.880;2023-02-11T17:57:11;56.50;;;29.17;;
77705;SDS011;66874;45.274;5.880;2023-02-11T17:59:37;58.70;;;29.92;;
77705;SDS011;66874;45.274;5.880;2023-02-11T18:02:03;59.00;;;30.42;;
77705;SDS011;66874;45.274;5.880;2023-02-11T18:04:29;60.28;;;32.20;;
77705;SDS011;66874;45.274;5.880;2023-02-11T18:06:56;62.63;;;35.58;;
77705;SDS011;66874;45.274;5.880;2023-02-11T18:09:22;69.65;;;35.42;;
77705;SDS011;66874;45.274;5.880;2023-02-11T18:11:48;62.57;;;32.23;;
77705;SDS011;66874;45.274;5.880;2023-02-11T18:14:16;64.18;;;34.17;;
77705;SDS011;66874;45.274;5.880;2023-02-11T18:16:43;61.20;;;30.63;;
77705;SDS011;66874;45.274;5.880;2023-02-11T18:19:10;62.10;;;30.10;;
77705;SDS011;66874;45.274;5.880;2023-02-11T18:21:36;64.93;;;31.20;;
77705;SDS011;66874;45.274;5.880;2023-02-11T18:24:02;64.97;;;30.50;;
77705;SDS011;66874;45.274;5.880;2023-02-11T18:26:28;63.60;;;33.10;;
77705;SDS011;66874;45.274;5.880;2023-02-11T18:28:55;66.65;;;35.00;;
77705;SDS011;66874;45.274;5.880;2023-02-11T18:31:22;87.13;;;45.80;;
77705;SDS011;66874;45.274;5.880;2023-02-11T18:33:48;53.92;;;28.10;;
77705;SDS011;66874;45.274;5.880;2023-02-11T18:36:14;51.35;;;27.45;;
77705;SDS011;66874;45.274;5.880;2023-02-11T18:38:40;51.70;;;25.35;;
77705;SDS011;66874;45.274;5.880;2023-02-11T18:41:08;50.55;;;26.48;;
77705;SDS011;66874;45.274;5.880;2023-02-11T18:43:34;58.75;;;30.55;;
77705;SDS011;66874;45.274;5.880;2023-02-11T18:46:00;48.92;;;26.23;;
77705;SDS011;66874;45.274;5.880;2023-02-11T18:48:30;53.88;;;26.55;;
77705;SDS011;66874;45.274;5.880;2023-02-11T18:50:55;52.75;;;26.60;;
77705;SDS011;66874;45.274;5.880;2023-02-11T18:53:21;47.65;;;24.20;;
77705;SDS011;66874;45.274;5.880;2023-02-11T18:55:48;59.10;;;26.23;;
77705;SDS011;66874;45.274;5.880;2023-02-11T18:58:14;66.38;;;29.13;;
77705;SDS011;66874;45.274;5.880;2023-02-11T19:00:40;69.63;;;27.15;;
77705;SDS011;66874;45.274;5.880;2023-02-11T19:03:07;60.05;;;26.88;;
77705;SDS011;66874;45.274;5.880;2023-02-11T19:05:43;62.30;;;31.33;;
77705;SDS011;66874;45.274;5.880;2023-02-11T19:08:10;58.83;;;27.15;;
77705;SDS011;66874;45.274;5.880;2023-02-11T19:10:45;48.75;;;24.67;;
77705;SDS011;66874;45.274;5.880;2023-02-11T19:13:12;55.28;;;25.30;;
77705;SDS011;66874;45.274;5.880;2023-02-11T19:15:42;59.88;;;25.15;;
77705;SDS011;66874;45.274;5.880;2023-02-11T19:18:08;60.92;;;25.90;;
77705;SDS011;66874;45.274;5.880;2023-02-11T19:20:35;65.68;;;29.42;;
77705;SDS011;66874;45.274;5.880;2023-02-11T19:23:03;55.45;;;27.95;;
77705;SDS011;66874;45.274;5.880;2023-02-11T19:25:28;75.35;;;31.05;;
77705;SDS011;66874;45.274;5.880;2023-02-11T19:27:54;75.05;;;30.92;;
77705;SDS011;66874;45.274;5.880;2023-02-11T19:30:19;67.72;;;27.42;;
77705;SDS011;66874;45.274;5.880;2023-02-11T19:32:44;78.03;;;32.35;;
77705;SDS011;66874;45.274;5.880;2023-02-11T19:35:10;74.93;;;35.30;;
77705;SDS011;66874;45.274;5.880;2023-02-11T19:37:35;67.78;;;31.63;;
77705;SDS011;66874;45.274;5.880;2023-02-11T19:40:01;52.55;;;26.50;;
77705;SDS011;66874;45.274;5.880;2023-02-11T19:42:26;52.45;;;23.75;;
77705;SDS011;66874;45.274;5.880;2023-02-11T19:44:52;46.60;;;22.45;;
77705;SDS011;66874;45.274;5.880;2023-02-11T19:47:17;51.70;;;23.42;;
77705;SDS011;66874;45.274;5.880;2023-02-11T19:49:43;48.17;;;24.30;;
77705;SDS011;66874;45.274;5.880;2023-02-11T19:52:08;51.25;;;25.85;;
77705;SDS011;66874;45.274;5.880;2023-02-11T19:54:34;51.83;;;26.55;;
77705;SDS011;66874;45.274;5.880;2023-02-11T19:57:02;53.28;;;25.13;;
77705;SDS011;66874;45.274;5.880;2023-02-11T19:59:27;45.58;;;22.17;;
77705;SDS011;66874;45.274;5.880;2023-02-11T20:01:53;42.85;;;21.80;;
77705;SDS011;66874;45.274;5.880;2023-02-11T20:04:18;39.97;;;21.27;;
77705;SDS011;66874;45.274;5.880;2023-02-11T20:06:44;39.17;;;20.52;;
77705;SDS011;66874;45.274;5.880;2023-02-11T20:09:12;42.33;;;20.05;;
77705;SDS011;66874;45.274;5.880;2023-02-11T20:11:39;42.90;;;19.05;;
77705;SDS011;66874;45.274;5.880;2023-02-11T20:14:05;50.55;;;22.77;;
77705;SDS011;66874;45.274;5.880;2023-02-11T20:16:31;49.75;;;23.70;;
77705;SDS011;66874;45.274;5.880;2023-02-11T20:18:57;61.90;;;28.03;;
77705;SDS011;66874;45.274;5.880;2023-02-11T20:21:24;58.33;;;26.25;;
77705;SDS011;66874;45.274;5.880;2023-02-11T20:23:52;67.95;;;30.17;;
77705;SDS011;66874;45.274;5.880;2023-02-11T20:28:51;88.90;;;36.20;;
77705;SDS011;66874;45.274;5.880;2023-02-11T20:31:18;76.53;;;35.10;;
77705;SDS011;66874;45.274;5.880;2023-02-11T20:33:46;115.25;;;46.88;;
77705;SDS011;66874;45.274;5.880;2023-02-11T20:36:15;107.22;;;43.72;;
77705;SDS011;66874;45.274;5.880;2023-02-11T20:38:43;126.53;;;46.25;;
77705;SDS011;66874;45.274;5.880;2023-02-11T20:41:16;107.97;;;47.10;;
77705;SDS011;66874;45.274;5.880;2023-02-11T20:43:45;98.38;;;38.40;;
77705;SDS011;66874;45.274;5.880;2023-02-11T20:46:13;70.55;;;31.20;;
77705;SDS011;66874;45.274;5.880;2023-02-11T20:48:40;66.80;;;28.45;;
77705;SDS011;66874;45.274;5.880;2023-02-11T20:51:07;64.97;;;27.00;;
77705;SDS011;66874;45.274;5.880;2023-02-11T20:53:35;62.22;;;26.83;;
77705;SDS011;66874;45.274;5.880;2023-02-11T20:56:05;59.97;;;26.42;;
77705;SDS011;66874;45.274;5.880;2023-02-11T21:01:08;73.97;;;29.67;;
77705;SDS011;66874;45.274;5.880;2023-02-11T21:03:35;74.43;;;30.48;;
77705;SDS011;66874;45.274;5.880;2023-02-11T21:06:00;67.78;;;30.33;;
77705;SDS011;66874;45.274;5.880;2023-02-11T21:08:26;61.47;;;27.23;;
77705;SDS011;66874;45.274;5.880;2023-02-11T21:10:52;63.97;;;27.27;;
77705;SDS011;66874;45.274;5.880;2023-02-11T21:13:17;65.20;;;27.73;;
77705;SDS011;66874;45.274;5.880;2023-02-11T21:15:42;55.85;;;23.88;;
77705;SDS011;66874;45.274;5.880;2023-02-11T21:18:08;54.80;;;22.67;;
77705;SDS011;66874;45.274;5.880;2023-02-11T21:20:33;43.33;;;21.67;;
77705;SDS011;66874;45.274;5.880;2023-02-11T21:22:59;54.72;;;23.85;;
77705;SDS011;66874;45.274;5.880;2023-02-11T21:25:24;80.85;;;33.28;;
77705;SDS011;66874;45.274;5.880;2023-02-11T21:27:50;77.57;;;31.85;;
77705;SDS011;66874;45.274;5.880;2023-02-11T21:30:15;63.97;;;27.35;;
77705;SDS011;66874;45.274;5.880;2023-02-11T21:32:41;61.10;;;23.33;;
77705;SDS011;66874;45.274;5.880;2023-02-11T21:35:06;53.97;;;23.35;;
77705;SDS011;66874;45.274;5.880;2023-02-11T21:37:32;53.65;;;22.33;;
77705;SDS011;66874;45.274;5.880;2023-02-11T21:39:57;46.60;;;20.27;;
77705;SDS011;66874;45.274;5.880;2023-02-11T21:42:23;43.38;;;18.50;;
77705;SDS011;66874;45.274;5.880;2023-02-11T21:44:48;36.97;;;16.65;;
77705;SDS011;66874;45.274;5.880;2023-02-11T21:47:14;37.38;;;16.08;;
77705;SDS011;66874;45.274;5.880;2023-02-11T21:49:39;39.70;;;16.80;;
77705;SDS011;66874;45.274;5.880;2023-02-11T21:52:05;33.28;;;15.85;;
77705;SDS011;66874;45.274;5.880;2023-02-11T21:54:30;34.30;;;16.58;;
77705;SDS011;66874;45.274;5.880;2023-02-11T21:56:56;36.35;;;16.80;;
77705;SDS011;66874;45.274;5.880;2023-02-11T21:59:22;35.83;;;16.30;;
77705;SDS011;66874;45.274;5.880;2023-02-11T22:01:48;38.75;;;17.55;;
77705;SDS011;66874;45.274;5.880;2023-02-11T22:04:14;37.17;;;15.88;;
77705;SDS011;66874;45.274;5.880;2023-02-11T22:06:40;55.43;;;24.40;;
77705;SDS011;66874;45.274;5.880;2023-02-11T22:09:07;77.82;;;28.25;;
77705;SDS011;66874;45.274;5.880;2023-02-11T22:11:35;48.65;;;21.25;;
77705;SDS011;66874;45.274;5.880;2023-02-11T22:14:00;44.10;;;19.25;;
77705;SDS011;66874;45.274;5.880;2023-02-11T22:16:26;51.85;;;21.88;;
77705;SDS011;66874;45.274;5.880;2023-02-11T22:21:21;60.22;;;23.38;;
77705;SDS011;66874;45.274;5.880;2023-02-11T22:23:46;46.10;;;21.27;;
77705;SDS011;66874;45.274;5.880;2023-02-11T22:26:14;65.90;;;24.83;;
77705;SDS011;66874;45.274;5.880;2023-02-11T22:28:40;60.58;;;20.08;;
77705;SDS011;66874;45.274;5.880;2023-02-11T22:31:08;50.78;;;18.63;;
77705;SDS011;66874;45.274;5.880;2023-02-11T22:33:36;43.40;;;18.95;;
77705;SDS011;66874;45.274;5.880;2023-02-11T22:36:02;61.40;;;23.17;;
77705;SDS011;66874;45.274;5.880;2023-02-11T22:38:30;62.42;;;24.88;;
77705;SDS011;66874;45.274;5.880;2023-02-11T22:40:57;61.47;;;24.25;;